Flight Track Log - Related Links

Times and Time Zones

All times are in EDT time to prevent confusion due to time zone crossing. See the N959RP flight status page for this flight to view local times or setup timezone preferences in your user account.

Time Position Orientation Groundspeed Altitude Reporting Facility
EDT Latitude Longitude Course Direction KTS MPH feet Rate Location/Type
Sun 01:56:08 PM 35.7872 -84.0925 350° North 193 222 5,800  Level Atlanta Center
Sun 01:57:08 PM 35.8581 -84.1081 350° North 157 181 8,600 2,900 Climbing Atlanta Center
Sun 01:58:08 PM 35.9456 -84.1158 356° North 237 273 11,600 3,000 Climbing Atlanta Center
Sun 01:59:08 PM 36.0458 -84.1208 358° North 312 359 14,600 3,400 Climbing Atlanta Center
Sun 02:00:08 PM 36.1522 -84.1261 358° North 341 392 18,400 3,360 Climbing Atlanta Center
Sun 02:01:13 PM 36.2628 -84.1342 357° North 389 448 21,600 2,740 Climbing Indianapolis Center
Sun 02:02:15 PM 36.3758 -84.1417 357° North 400 460 24,200 2,419 Climbing Indianapolis Center
Sun 02:03:17 PM 36.4931 -84.1506 357° North 415 478 26,600 2,244 Climbing Indianapolis Center
Sun 02:04:18 PM 36.6244 -84.1606 357° North 423 487 28,800 1,854 Climbing Indianapolis Center
Sun 02:05:20 PM 36.7481 -84.1686 357° North 435 501 30,400 1,463 Climbing Indianapolis Center
Sun 02:06:21 PM 36.8728 -84.1783 356° North 445 512 31,800 1,366 Climbing Indianapolis Center
Sun 02:07:23 PM 36.9994 -84.1881 356° North 451 519 33,200 1,161 Climbing Indianapolis Center
Sun 02:08:25 PM 37.1292 -84.1978 357° North 460 529 34,200 1,016 Climbing Indianapolis Center
Sun 02:09:27 PM 37.2822 -84.2089 357° North 469 540 35,300 1,024 Climbing Indianapolis Center
Sun 02:10:28 PM 37.4139 -84.2200 356° North 471 542 36,300 1,038 Climbing Indianapolis Center
Sun 02:12:32 PM 37.6753 -84.2364 357° North 465 535 38,500 1,038 Climbing Indianapolis Center
Sun 02:13:33 PM 37.8022 -84.2464 356° North 457 526 39,500 732 Climbing Indianapolis Center
Sun 02:14:35 PM 37.9292 -84.2553 357° North 455 524 40,000 242 Climbing Indianapolis Center
Sun 02:15:37 PM 38.0569 -84.2661 356° North 459 528 40,000  Level Indianapolis Center
Sun 02:16:39 PM 38.2075 -84.2761 357° North 461 531 40,000  Level Indianapolis Center
Sun 02:17:40 PM 38.3350 -84.2867 356° North 460 529 40,000  Level Indianapolis Center
Sun 02:18:42 PM 38.4644 -84.2956 357° North 463 533 40,000  Level Indianapolis Center
Sun 02:19:44 PM 38.5944 -84.3042 357° North 465 535 40,000 -48 Level Indianapolis Center
Sun 02:20:46 PM 38.7144 -84.3264 352° North 461 531 39,900 -48 Descending Indianapolis Center
Sun 02:21:48 PM 38.8581 -84.3678 347° North 449 517 39,900  Level Indianapolis Center
Sun 02:22:50 PM 38.9772 -84.4008 348° North 438 504 39,900  Level Indianapolis Center
Sun 02:23:52 PM 39.0967 -84.4319 349° North 435 501 39,900  Level Indianapolis Center
Sun 02:24:54 PM 39.2167 -84.4650 348° North 437 503 39,900 -488 Level Indianapolis Center
Sun 02:25:55 PM 39.3367 -84.4967 348° North 435 501 38,900 -1,268 Descending Indianapolis Center
Sun 02:26:57 PM 39.4603 -84.5311 348° North 445 512 37,300 -968 Descending Indianapolis Center
Sun 02:27:59 PM 39.5872 -84.5672 348° North 457 526 36,900 -194 Descending Indianapolis Center
Sun 02:29:01 PM 39.7158 -84.6028 348° North 462 532 36,900  Level Indianapolis Center
Sun 02:30:03 PM 39.8311 -84.6658 337° Northwest 445 512 36,900  Level Indianapolis Center
Sun 02:31:05 PM 39.9475 -84.7242 339° North 443 510 36,900 -48 Level Indianapolis Center
Sun 02:32:07 PM 40.0950 -84.7603 349° North 455 524 36,800 -629 Descending Indianapolis Center
Sun 02:33:09 PM 40.2194 -84.7925 349° North 451 519 35,600 -1,597 Descending Indianapolis Center
Sun 02:34:11 PM 40.3447 -84.8256 349° North 454 522 33,500 -1,742 Descending Indianapolis Center
Sun 02:35:13 PM 40.4739 -84.8592 349° North 462 532 32,000 -774 Descending Indianapolis Center
Sun 02:36:15 PM 40.5989 -84.8931 348° North 458 527 31,900  Descending Indianapolis Center
Sun 02:37:17 PM 40.7133 -84.9228 349° North 452 520 32,000 48 Climbing Indianapolis Center
Sun 02:38:19 PM 40.8672 -84.9639 349° North 469 540 32,000 -97 Level Indianapolis Center
Sun 02:39:21 PM 40.9958 -84.9986 348° North 472 543 31,800 -1,065 Descending Indianapolis Center
Sun 02:40:23 PM 41.1222 -85.0325 349° North 466 536 29,800 -1,701 Descending Indianapolis Center
Sun 02:41:35 PM 41.2792 -85.0744 349° North 457 526 28,000 -1,075 Descending Chicago Center
Sun 02:42:37 PM 41.4014 -85.1081 348° North 452 520 27,400 -774 Descending Chicago Center
Sun 02:43:39 PM 41.5264 -85.1425 348° North 462 532 26,400 -774 Descending Chicago Center
Sun 02:44:41 PM 41.6528 -85.1764 349° North 472 543 25,800 -1,016 Descending Chicago Center
Sun 02:45:43 PM 41.8011 -85.2189 348° North 465 535 24,300 -1,452 Descending Chicago Center
Sun 02:46:45 PM 41.9228 -85.2525 348° North 456 525 22,800 -2,274 Descending Chicago Center
Sun 02:47:47 PM 42.0425 -85.2869 348° North 418 481 19,600 -3,000 Descending Chicago Center
Sun 02:48:49 PM 42.1553 -85.3189 348° North 415 478 16,600 -2,758 Descending Chicago Center
Sun 02:49:51 PM 42.2622 -85.3486 348° North 401 461 13,900 -2,516 Descending Chicago Center
Sun 02:50:53 PM 42.3544 -85.3733 349° North 351 404 11,400 -2,177 Descending Chicago Center
Sun 02:51:55 PM 42.4367 -85.3953 349° North 312 359 9,400 -1,161 Descending Chicago Center
Sun 02:52:57 PM 42.5303 -85.4003 358° North 286 329 9,000 -1,694 Descending Chicago Center
Sun 02:53:59 PM 42.6064 -85.3950 North 278 320 5,900 -2,448 Descending Chicago Center
Sun 02:55:02 PM 42.6786 -85.4075 353° North 266 306 3,900 -1,200 Descending Chicago Center
Sun 02:56:04 PM 42.7408 -85.4450 336° Northwest 249 287 3,400 -629 Descending Chicago Center
Sun 02:57:06 PM 42.7786 -85.4772 328° Northwest 173 199 2,600 -823 Descending Chicago Center
Sun 02:58:08 PM 42.8228 -85.5031 337° Northwest 155 178 1,700 -774 Descending Chicago Center
Sun 02:59:10 PM 42.8583 -85.5147 346° North 142 163 1,000 -677 Descending Chicago Center
Sun 03:01:00 PM 42.8667 -85.5167 346° North  Level FlightAware Approximate
Sun 03:08:00 PM 42.8808 -85.5228 346° North  Level Estimated
Sun 03:09:00 PM 42.8808 -85.5228 346° North  Level Estimated
Sun 03:10:00 PM 42.8808 -85.5228 346° North  Level Estimated
Sun 03:11:00 PM 42.8808 -85.5228 346° North  Level Estimated
Sun 03:12:00 PM 42.8808 -85.5228 346° North  Level Estimated
Sun 03:13:00 PM 42.8808 -85.5228 346° North  Level Estimated
Sun 03:14:00 PM 42.8808 -85.5228 346° North  Level Estimated
Sun 03:15:00 PM 42.8808 -85.5228 346° North  Level Estimated

Login

Don't have an account? Register now (free) for customized features, flight alerts, and more!